sensor_id;sensor_type;location;lat;lon;timestamp;P1;durP1;ratioP1;P2;durP2;ratioP2
66546;SDS011;53400;50.364;14.874;2023-02-28T00:02:23;19.10;;;8.15;;
66546;SDS011;53400;50.364;14.874;2023-02-28T00:04:49;21.67;;;8.52;;
66546;SDS011;53400;50.364;14.874;2023-02-28T00:07:18;20.70;;;8.10;;
66546;SDS011;53400;50.364;14.874;2023-02-28T00:09:45;20.48;;;8.27;;
66546;SDS011;53400;50.364;14.874;2023-02-28T00:12:11;12.73;;;7.35;;
66546;SDS011;53400;50.364;14.874;2023-02-28T00:14:37;15.30;;;7.35;;
66546;SDS011;53400;50.364;14.874;2023-02-28T00:17:03;15.65;;;8.32;;
66546;SDS011;53400;50.364;14.874;2023-02-28T00:19:29;15.05;;;6.80;;
66546;SDS011;53400;50.364;14.874;2023-02-28T00:21:55;19.13;;;8.45;;
66546;SDS011;53400;50.364;14.874;2023-02-28T00:24:21;19.27;;;7.95;;
66546;SDS011;53400;50.364;14.874;2023-02-28T00:26:48;16.00;;;7.30;;
66546;SDS011;53400;50.364;14.874;2023-02-28T00:29:14;20.85;;;7.55;;
66546;SDS011;53400;50.364;14.874;2023-02-28T00:31:39;18.88;;;8.63;;
66546;SDS011;53400;50.364;14.874;2023-02-28T00:34:05;18.08;;;9.25;;
66546;SDS011;53400;50.364;14.874;2023-02-28T00:36:31;17.70;;;8.18;;
66546;SDS011;53400;50.364;14.874;2023-02-28T00:38:57;16.02;;;6.97;;
66546;SDS011;53400;50.364;14.874;2023-02-28T00:41:23;15.10;;;7.07;;
66546;SDS011;53400;50.364;14.874;2023-02-28T00:43:50;17.27;;;7.97;;
66546;SDS011;53400;50.364;14.874;2023-02-28T00:46:16;13.50;;;6.28;;
66546;SDS011;53400;50.364;14.874;2023-02-28T00:48:42;14.30;;;5.90;;
66546;SDS011;53400;50.364;14.874;2023-02-28T00:51:08;14.70;;;6.13;;
66546;SDS011;53400;50.364;14.874;2023-02-28T00:53:34;14.65;;;5.93;;
66546;SDS011;53400;50.364;14.874;2023-02-28T00:56:00;13.85;;;6.13;;
66546;SDS011;53400;50.364;14.874;2023-02-28T00:58:27;12.75;;;6.13;;
66546;SDS011;53400;50.364;14.874;2023-02-28T01:00:54;18.60;;;7.43;;
66546;SDS011;53400;50.364;14.874;2023-02-28T01:03:20;16.92;;;7.05;;
66546;SDS011;53400;50.364;14.874;2023-02-28T01:05:47;14.35;;;7.03;;
66546;SDS011;53400;50.364;14.874;2023-02-28T01:08:13;13.82;;;6.63;;
66546;SDS011;53400;50.364;14.874;2023-02-28T01:10:40;17.73;;;7.53;;
66546;SDS011;53400;50.364;14.874;2023-02-28T01:13:06;18.20;;;8.25;;
66546;SDS011;53400;50.364;14.874;2023-02-28T01:15:32;12.52;;;6.75;;
66546;SDS011;53400;50.364;14.874;2023-02-28T01:18:00;17.50;;;8.55;;
66546;SDS011;53400;50.364;14.874;2023-02-28T01:20:25;15.60;;;7.32;;
66546;SDS011;53400;50.364;14.874;2023-02-28T01:22:51;16.08;;;7.80;;
66546;SDS011;53400;50.364;14.874;2023-02-28T01:25:17;15.35;;;7.15;;
66546;SDS011;53400;50.364;14.874;2023-02-28T01:27:43;15.63;;;7.45;;
66546;SDS011;53400;50.364;14.874;2023-02-28T01:30:10;18.15;;;9.40;;
66546;SDS011;53400;50.364;14.874;2023-02-28T01:32:37;15.23;;;7.10;;
66546;SDS011;53400;50.364;14.874;2023-02-28T01:35:05;13.80;;;6.85;;
66546;SDS011;53400;50.364;14.874;2023-02-28T01:37:31;13.20;;;6.88;;
66546;SDS011;53400;50.364;14.874;2023-02-28T01:39:56;14.43;;;6.97;;
66546;SDS011;53400;50.364;14.874;2023-02-28T01:42:22;14.68;;;7.40;;
66546;SDS011;53400;50.364;14.874;2023-02-28T01:44:58;18.92;;;7.50;;
66546;SDS011;53400;50.364;14.874;2023-02-28T01:47:27;16.77;;;7.47;;
66546;SDS011;53400;50.364;14.874;2023-02-28T01:49:55;13.38;;;7.38;;
66546;SDS011;53400;50.364;14.874;2023-02-28T01:52:24;15.57;;;7.47;;
66546;SDS011;53400;50.364;14.874;2023-02-28T01:54:52;14.38;;;7.38;;
66546;SDS011;53400;50.364;14.874;2023-02-28T01:57:21;14.85;;;7.60;;
66546;SDS011;53400;50.364;14.874;2023-02-28T01:59:51;16.00;;;7.80;;
66546;SDS011;53400;50.364;14.874;2023-02-28T02:02:20;17.58;;;7.80;;
66546;SDS011;53400;50.364;14.874;2023-02-28T02:04:50;15.65;;;7.88;;
66546;SDS011;53400;50.364;14.874;2023-02-28T02:07:19;16.67;;;7.68;;
66546;SDS011;53400;50.364;14.874;2023-02-28T02:09:46;15.35;;;7.20;;
66546;SDS011;53400;50.364;14.874;2023-02-28T02:12:16;13.95;;;7.65;;
66546;SDS011;53400;50.364;14.874;2023-02-28T02:14:52;12.98;;;7.15;;
66546;SDS011;53400;50.364;14.874;2023-02-28T02:17:28;12.15;;;6.43;;
66546;SDS011;53400;50.364;14.874;2023-02-28T02:23:27;14.10;;;7.05;;
66546;SDS011;53400;50.364;14.874;2023-02-28T02:35:45;17.05;;;7.72;;
66546;SDS011;53400;50.364;14.874;2023-02-28T02:38:18;17.80;;;7.75;;
66546;SDS011;53400;50.364;14.874;2023-02-28T02:40:51;14.48;;;6.97;;
66546;SDS011;53400;50.364;14.874;2023-02-28T02:43:22;13.55;;;6.65;;
66546;SDS011;53400;50.364;14.874;2023-02-28T02:45:55;13.43;;;6.87;;
66546;SDS011;53400;50.364;14.874;2023-02-28T02:48:25;14.50;;;6.93;;
66546;SDS011;53400;50.364;14.874;2023-02-28T02:50:58;15.73;;;7.00;;
66546;SDS011;53400;50.364;14.874;2023-02-28T02:53:27;15.25;;;7.60;;
66546;SDS011;53400;50.364;14.874;2023-02-28T02:55:57;15.77;;;6.70;;
66546;SDS011;53400;50.364;14.874;2023-02-28T02:58:26;14.60;;;7.70;;
66546;SDS011;53400;50.364;14.874;2023-02-28T03:00:58;18.27;;;7.43;;
66546;SDS011;53400;50.364;14.874;2023-02-28T03:03:26;14.88;;;6.68;;
66546;SDS011;53400;50.364;14.874;2023-02-28T03:05:55;14.38;;;7.43;;
66546;SDS011;53400;50.364;14.874;2023-02-28T03:08:24;17.23;;;7.28;;
66546;SDS011;53400;50.364;14.874;2023-02-28T03:10:50;15.32;;;6.68;;
66546;SDS011;53400;50.364;14.874;2023-02-28T03:16:36;13.65;;;7.22;;
66546;SDS011;53400;50.364;14.874;2023-02-28T03:19:21;14.63;;;6.07;;
66546;SDS011;53400;50.364;14.874;2023-02-28T03:22:01;13.82;;;6.60;;
66546;SDS011;53400;50.364;14.874;2023-02-28T03:24:40;13.52;;;6.85;;
66546;SDS011;53400;50.364;14.874;2023-02-28T03:27:13;12.90;;;6.50;;
66546;SDS011;53400;50.364;14.874;2023-02-28T03:29:47;17.75;;;6.45;;
66546;SDS011;53400;50.364;14.874;2023-02-28T03:32:23;14.15;;;6.65;;
66546;SDS011;53400;50.364;14.874;2023-02-28T03:34:54;14.88;;;7.03;;
66546;SDS011;53400;50.364;14.874;2023-02-28T03:37:27;15.95;;;6.88;;
66546;SDS011;53400;50.364;14.874;2023-02-28T03:39:57;16.00;;;6.45;;
66546;SDS011;53400;50.364;14.874;2023-02-28T03:42:31;13.38;;;6.93;;
66546;SDS011;53400;50.364;14.874;2023-02-28T03:44:59;13.85;;;6.93;;
66546;SDS011;53400;50.364;14.874;2023-02-28T03:47:29;15.88;;;7.15;;
66546;SDS011;53400;50.364;14.874;2023-02-28T03:49:59;14.30;;;6.47;;
66546;SDS011;53400;50.364;14.874;2023-02-28T03:52:33;12.88;;;6.50;;
66546;SDS011;53400;50.364;14.874;2023-02-28T03:55:03;13.63;;;6.70;;
66546;SDS011;53400;50.364;14.874;2023-02-28T03:57:36;14.50;;;6.78;;
66546;SDS011;53400;50.364;14.874;2023-02-28T04:00:07;13.15;;;6.93;;
66546;SDS011;53400;50.364;14.874;2023-02-28T04:02:38;16.70;;;7.55;;
66546;SDS011;53400;50.364;14.874;2023-02-28T04:05:05;12.63;;;7.03;;
66546;SDS011;53400;50.364;14.874;2023-02-28T04:07:32;15.93;;;7.30;;
66546;SDS011;53400;50.364;14.874;2023-02-28T04:09:59;12.77;;;6.40;;
66546;SDS011;53400;50.364;14.874;2023-02-28T04:12:25;13.65;;;6.88;;
66546;SDS011;53400;50.364;14.874;2023-02-28T04:14:50;14.40;;;7.38;;
66546;SDS011;53400;50.364;14.874;2023-02-28T04:17:16;14.65;;;7.13;;
66546;SDS011;53400;50.364;14.874;2023-02-28T04:19:42;16.88;;;7.70;;
66546;SDS011;53400;50.364;14.874;2023-02-28T04:22:09;16.10;;;7.03;;
66546;SDS011;53400;50.364;14.874;2023-02-28T04:24:37;13.02;;;6.95;;
66546;SDS011;53400;50.364;14.874;2023-02-28T04:27:06;15.85;;;7.80;;
66546;SDS011;53400;50.364;14.874;2023-02-28T04:29:34;16.55;;;7.40;;
66546;SDS011;53400;50.364;14.874;2023-02-28T04:32:00;14.48;;;7.50;;
66546;SDS011;53400;50.364;14.874;2023-02-28T04:34:26;15.40;;;7.13;;
66546;SDS011;53400;50.364;14.874;2023-02-28T04:36:54;15.52;;;8.25;;
66546;SDS011;53400;50.364;14.874;2023-02-28T04:39:21;13.75;;;7.32;;
66546;SDS011;53400;50.364;14.874;2023-02-28T04:41:49;16.52;;;8.23;;
66546;SDS011;53400;50.364;14.874;2023-02-28T04:44:15;15.30;;;7.00;;
66546;SDS011;53400;50.364;14.874;2023-02-28T04:46:42;15.85;;;7.03;;
66546;SDS011;53400;50.364;14.874;2023-02-28T04:49:08;17.10;;;6.75;;
66546;SDS011;53400;50.364;14.874;2023-02-28T04:51:36;18.10;;;8.30;;
66546;SDS011;53400;50.364;14.874;2023-02-28T04:54:01;15.35;;;7.82;;
66546;SDS011;53400;50.364;14.874;2023-02-28T04:56:28;17.67;;;7.30;;
66546;SDS011;53400;50.364;14.874;2023-02-28T04:58:55;14.90;;;8.05;;
66546;SDS011;53400;50.364;14.874;2023-02-28T05:01:22;19.77;;;9.18;;
66546;SDS011;53400;50.364;14.874;2023-02-28T05:03:49;13.48;;;7.32;;
66546;SDS011;53400;50.364;14.874;2023-02-28T05:06:17;16.80;;;8.05;;
66546;SDS011;53400;50.364;14.874;2023-02-28T05:08:44;17.63;;;8.70;;
66546;SDS011;53400;50.364;14.874;2023-02-28T05:11:13;20.45;;;10.00;;
66546;SDS011;53400;50.364;14.874;2023-02-28T05:13:41;18.40;;;8.88;;
66546;SDS011;53400;50.364;14.874;2023-02-28T05:16:08;13.82;;;7.90;;
66546;SDS011;53400;50.364;14.874;2023-02-28T05:18:34;20.23;;;9.93;;
66546;SDS011;53400;50.364;14.874;2023-02-28T05:21:00;17.73;;;9.27;;
66546;SDS011;53400;50.364;14.874;2023-02-28T05:23:29;16.63;;;8.45;;
66546;SDS011;53400;50.364;14.874;2023-02-28T05:25:55;18.30;;;8.50;;
66546;SDS011;53400;50.364;14.874;2023-02-28T05:28:21;14.80;;;7.30;;
66546;SDS011;53400;50.364;14.874;2023-02-28T05:30:47;15.23;;;6.80;;
66546;SDS011;53400;50.364;14.874;2023-02-28T05:33:15;16.45;;;7.50;;
66546;SDS011;53400;50.364;14.874;2023-02-28T05:35:44;20.20;;;7.78;;
66546;SDS011;53400;50.364;14.874;2023-02-28T05:38:10;16.67;;;7.53;;
66546;SDS011;53400;50.364;14.874;2023-02-28T05:40:37;16.13;;;6.97;;
66546;SDS011;53400;50.364;14.874;2023-02-28T05:43:03;15.05;;;7.28;;
66546;SDS011;53400;50.364;14.874;2023-02-28T05:45:29;18.48;;;7.40;;
66546;SDS011;53400;50.364;14.874;2023-02-28T05:47:55;19.40;;;9.00;;
66546;SDS011;53400;50.364;14.874;2023-02-28T05:50:23;17.58;;;7.50;;
66546;SDS011;53400;50.364;14.874;2023-02-28T05:52:49;15.45;;;7.10;;
66546;SDS011;53400;50.364;14.874;2023-02-28T05:55:15;17.60;;;8.63;;
66546;SDS011;53400;50.364;14.874;2023-02-28T05:57:41;16.35;;;7.75;;
66546;SDS011;53400;50.364;14.874;2023-02-28T06:00:08;15.82;;;8.07;;
66546;SDS011;53400;50.364;14.874;2023-02-28T06:02:35;14.80;;;7.68;;
66546;SDS011;53400;50.364;14.874;2023-02-28T06:05:01;15.45;;;8.18;;
66546;SDS011;53400;50.364;14.874;2023-02-28T06:07:28;16.23;;;7.68;;
66546;SDS011;53400;50.364;14.874;2023-02-28T06:09:54;15.10;;;7.93;;
66546;SDS011;53400;50.364;14.874;2023-02-28T06:12:20;15.05;;;7.45;;
66546;SDS011;53400;50.364;14.874;2023-02-28T06:14:46;15.75;;;7.72;;
66546;SDS011;53400;50.364;14.874;2023-02-28T06:17:12;17.67;;;8.55;;
66546;SDS011;53400;50.364;14.874;2023-02-28T06:19:38;17.55;;;8.77;;
66546;SDS011;53400;50.364;14.874;2023-02-28T06:22:04;19.05;;;9.60;;
66546;SDS011;53400;50.364;14.874;2023-02-28T06:24:32;20.63;;;9.88;;
66546;SDS011;53400;50.364;14.874;2023-02-28T06:26:58;18.88;;;8.60;;
66546;SDS011;53400;50.364;14.874;2023-02-28T06:29:30;17.58;;;9.00;;
66546;SDS011;53400;50.364;14.874;2023-02-28T06:31:56;17.10;;;9.00;;
66546;SDS011;53400;50.364;14.874;2023-02-28T06:34:22;18.58;;;8.70;;
66546;SDS011;53400;50.364;14.874;2023-02-28T06:36:49;15.98;;;8.32;;
66546;SDS011;53400;50.364;14.874;2023-02-28T06:39:16;16.05;;;8.18;;
66546;SDS011;53400;50.364;14.874;2023-02-28T06:41:43;15.10;;;9.25;;
66546;SDS011;53400;50.364;14.874;2023-02-28T06:44:11;17.58;;;8.13;;
66546;SDS011;53400;50.364;14.874;2023-02-28T06:46:38;18.58;;;9.13;;
66546;SDS011;53400;50.364;14.874;2023-02-28T06:49:05;19.05;;;9.40;;
66546;SDS011;53400;50.364;14.874;2023-02-28T06:51:34;20.73;;;9.45;;
66546;SDS011;53400;50.364;14.874;2023-02-28T06:54:02;17.08;;;8.60;;
66546;SDS011;53400;50.364;14.874;2023-02-28T06:56:29;21.38;;;9.80;;
66546;SDS011;53400;50.364;14.874;2023-02-28T06:58:56;17.33;;;9.13;;
66546;SDS011;53400;50.364;14.874;2023-02-28T07:01:22;17.77;;;8.77;;
66546;SDS011;53400;50.364;14.874;2023-02-28T07:03:49;20.05;;;9.13;;
66546;SDS011;53400;50.364;14.874;2023-02-28T07:06:17;16.38;;;8.70;;
66546;SDS011;53400;50.364;14.874;2023-02-28T07:08:44;16.92;;;7.80;;
66546;SDS011;53400;50.364;14.874;2023-02-28T07:11:10;17.15;;;7.88;;
66546;SDS011;53400;50.364;14.874;2023-02-28T07:13:36;17.20;;;8.73;;
66546;SDS011;53400;50.364;14.874;2023-02-28T07:16:04;20.00;;;9.05;;
66546;SDS011;53400;50.364;14.874;2023-02-28T07:18:31;19.20;;;8.65;;
66546;SDS011;53400;50.364;14.874;2023-02-28T07:20:57;22.52;;;8.73;;
66546;SDS011;53400;50.364;14.874;2023-02-28T07:23:23;20.40;;;8.05;;
66546;SDS011;53400;50.364;14.874;2023-02-28T07:25:49;24.25;;;9.00;;
66546;SDS011;53400;50.364;14.874;2023-02-28T07:28:16;11.88;;;6.70;;
66546;SDS011;53400;50.364;14.874;2023-02-28T07:30:42;13.40;;;6.53;;
66546;SDS011;53400;50.364;14.874;2023-02-28T07:33:09;12.57;;;5.97;;
66546;SDS011;53400;50.364;14.874;2023-02-28T07:35:35;17.45;;;8.57;;
66546;SDS011;53400;50.364;14.874;2023-02-28T07:38:01;18.00;;;7.25;;
66546;SDS011;53400;50.364;14.874;2023-02-28T07:40:28;13.85;;;7.40;;
66546;SDS011;53400;50.364;14.874;2023-02-28T07:42:54;12.02;;;7.00;;
66546;SDS011;53400;50.364;14.874;2023-02-28T07:45:20;14.05;;;7.38;;
66546;SDS011;53400;50.364;14.874;2023-02-28T07:47:46;13.02;;;6.38;;
66546;SDS011;53400;50.364;14.874;2023-02-28T07:50:14;11.02;;;5.60;;
66546;SDS011;53400;50.364;14.874;2023-02-28T07:52:41;13.38;;;6.53;;
66546;SDS011;53400;50.364;14.874;2023-02-28T07:55:07;9.52;;;5.28;;
66546;SDS011;53400;50.364;14.874;2023-02-28T07:57:35;10.82;;;5.75;;
66546;SDS011;53400;50.364;14.874;2023-02-28T08:00:01;12.85;;;6.18;;
66546;SDS011;53400;50.364;14.874;2023-02-28T08:02:28;11.30;;;6.22;;
66546;SDS011;53400;50.364;14.874;2023-02-28T08:04:54;11.00;;;5.30;;
66546;SDS011;53400;50.364;14.874;2023-02-28T08:07:22;12.25;;;5.95;;
66546;SDS011;53400;50.364;14.874;2023-02-28T08:09:48;9.48;;;4.97;;
66546;SDS011;53400;50.364;14.874;2023-02-28T08:12:14;14.85;;;5.30;;
66546;SDS011;53400;50.364;14.874;2023-02-28T08:14:40;10.30;;;5.07;;
66546;SDS011;53400;50.364;14.874;2023-02-28T08:17:06;9.38;;;5.88;;
66546;SDS011;53400;50.364;14.874;2023-02-28T08:19:32;11.75;;;6.50;;
66546;SDS011;53400;50.364;14.874;2023-02-28T08:21:58;9.52;;;4.72;;
66546;SDS011;53400;50.364;14.874;2023-02-28T08:24:25;10.20;;;5.47;;
66546;SDS011;53400;50.364;14.874;2023-02-28T08:26:52;19.17;;;5.75;;
66546;SDS011;53400;50.364;14.874;2023-02-28T08:29:17;12.52;;;6.68;;
66546;SDS011;53400;50.364;14.874;2023-02-28T08:31:44;10.40;;;5.45;;
66546;SDS011;53400;50.364;14.874;2023-02-28T08:34:11;13.45;;;6.53;;
66546;SDS011;53400;50.364;14.874;2023-02-28T08:36:38;10.70;;;5.50;;
66546;SDS011;53400;50.364;14.874;2023-02-28T08:39:05;10.85;;;5.63;;
66546;SDS011;53400;50.364;14.874;2023-02-28T08:41:32;10.73;;;6.32;;
66546;SDS011;53400;50.364;14.874;2023-02-28T08:43:58;11.73;;;6.40;;
66546;SDS011;53400;50.364;14.874;2023-02-28T08:46:26;10.23;;;5.72;;
66546;SDS011;53400;50.364;14.874;2023-02-28T08:48:52;12.68;;;6.55;;
66546;SDS011;53400;50.364;14.874;2023-02-28T08:51:19;7.20;;;4.10;;
66546;SDS011;53400;50.364;14.874;2023-02-28T08:53:51;10.70;;;6.38;;
66546;SDS011;53400;50.364;14.874;2023-02-28T08:56:18;9.98;;;5.57;;
66546;SDS011;53400;50.364;14.874;2023-02-28T08:58:46;12.52;;;5.03;;
66546;SDS011;53400;50.364;14.874;2023-02-28T09:01:14;10.55;;;4.45;;
66546;SDS011;53400;50.364;14.874;2023-02-28T09:03:42;10.65;;;5.65;;
66546;SDS011;53400;50.364;14.874;2023-02-28T09:06:09;10.60;;;6.43;;
66546;SDS011;53400;50.364;14.874;2023-02-28T09:08:35;11.50;;;6.53;;
66546;SDS011;53400;50.364;14.874;2023-02-28T09:11:02;10.35;;;5.50;;
66546;SDS011;53400;50.364;14.874;2023-02-28T09:13:28;7.82;;;4.70;;
66546;SDS011;53400;50.364;14.874;2023-02-28T09:15:58;11.40;;;5.88;;
66546;SDS011;53400;50.364;14.874;2023-02-28T09:18:25;9.90;;;4.72;;
66546;SDS011;53400;50.364;14.874;2023-02-28T09:20:51;11.52;;;6.32;;
66546;SDS011;53400;50.364;14.874;2023-02-28T09:23:17;12.60;;;5.90;;
66546;SDS011;53400;50.364;14.874;2023-02-28T09:25:47;12.25;;;6.25;;
66546;SDS011;53400;50.364;14.874;2023-02-28T09:28:14;13.68;;;6.07;;
66546;SDS011;53400;50.364;14.874;2023-02-28T09:30:44;12.85;;;5.68;;
66546;SDS011;53400;50.364;14.874;2023-02-28T09:33:13;11.55;;;5.07;;
66546;SDS011;53400;50.364;14.874;2023-02-28T09:35:39;12.32;;;6.28;;
66546;SDS011;53400;50.364;14.874;2023-02-28T09:38:05;12.63;;;6.63;;
66546;SDS011;53400;50.364;14.874;2023-02-28T09:40:34;12.60;;;7.10;;
66546;SDS011;53400;50.364;14.874;2023-02-28T09:43:02;12.23;;;6.72;;
66546;SDS011;53400;50.364;14.874;2023-02-28T09:45:29;13.40;;;5.90;;
66546;SDS011;53400;50.364;14.874;2023-02-28T09:47:58;12.38;;;6.75;;
66546;SDS011;53400;50.364;14.874;2023-02-28T09:50:32;8.95;;;5.43;;
66546;SDS011;53400;50.364;14.874;2023-02-28T09:53:02;11.70;;;5.93;;
66546;SDS011;53400;50.364;14.874;2023-02-28T09:55:33;8.77;;;4.80;;
66546;SDS011;53400;50.364;14.874;2023-02-28T09:58:03;11.75;;;6.65;;
66546;SDS011;53400;50.364;14.874;2023-02-28T10:00:30;12.38;;;6.80;;
66546;SDS011;53400;50.364;14.874;2023-02-28T10:03:06;12.05;;;5.63;;
66546;SDS011;53400;50.364;14.874;2023-02-28T10:05:52;9.63;;;5.72;;
66546;SDS011;53400;50.364;14.874;2023-02-28T10:08:23;13.98;;;6.63;;
66546;SDS011;53400;50.364;14.874;2023-02-28T10:10:54;12.65;;;6.53;;
66546;SDS011;53400;50.364;14.874;2023-02-28T10:13:24;11.90;;;5.97;;
66546;SDS011;53400;50.364;14.874;2023-02-28T10:15:58;11.65;;;6.25;;
66546;SDS011;53400;50.364;14.874;2023-02-28T10:18:30;10.50;;;5.63;;
66546;SDS011;53400;50.364;14.874;2023-02-28T10:21:09;10.60;;;5.63;;
66546;SDS011;53400;50.364;14.874;2023-02-28T10:23:45;13.57;;;6.93;;
66546;SDS011;53400;50.364;14.874;2023-02-28T10:26:14;14.98;;;7.55;;
66546;SDS011;53400;50.364;14.874;2023-02-28T10:28:42;11.98;;;6.47;;
66546;SDS011;53400;50.364;14.874;2023-02-28T10:31:09;9.63;;;5.82;;
66546;SDS011;53400;50.364;14.874;2023-02-28T10:33:39;12.10;;;6.95;;
66546;SDS011;53400;50.364;14.874;2023-02-28T10:36:05;11.77;;;6.18;;
66546;SDS011;53400;50.364;14.874;2023-02-28T10:38:39;14.50;;;7.27;;
66546;SDS011;53400;50.364;14.874;2023-02-28T10:41:06;12.35;;;7.55;;
66546;SDS011;53400;50.364;14.874;2023-02-28T10:43:34;10.95;;;6.43;;
66546;SDS011;53400;50.364;14.874;2023-02-28T10:46:02;12.38;;;5.78;;
66546;SDS011;53400;50.364;14.874;2023-02-28T10:48:33;12.13;;;5.80;;
66546;SDS011;53400;50.364;14.874;2023-02-28T10:51:02;13.13;;;6.70;;
66546;SDS011;53400;50.364;14.874;2023-02-28T10:53:33;13.95;;;7.15;;
66546;SDS011;53400;50.364;14.874;2023-02-28T10:56:05;14.13;;;6.75;;
66546;SDS011;53400;50.364;14.874;2023-02-28T10:58:46;13.57;;;7.45;;
66546;SDS011;53400;50.364;14.874;2023-02-28T11:01:15;11.18;;;6.30;;
66546;SDS011;53400;50.364;14.874;2023-02-28T11:03:43;13.27;;;6.63;;
66546;SDS011;53400;50.364;14.874;2023-02-28T11:06:13;12.40;;;6.43;;
66546;SDS011;53400;50.364;14.874;2023-02-28T11:08:46;12.95;;;6.80;;
66546;SDS011;53400;50.364;14.874;2023-02-28T11:11:16;11.45;;;6.07;;
66546;SDS011;53400;50.364;14.874;2023-02-28T11:13:45;9.75;;;5.45;;
66546;SDS011;53400;50.364;14.874;2023-02-28T11:16:13;12.25;;;6.22;;
66546;SDS011;53400;50.364;14.874;2023-02-28T11:18:41;11.65;;;4.97;;
66546;SDS011;53400;50.364;14.874;2023-02-28T11:21:15;9.93;;;5.13;;
66546;SDS011;53400;50.364;14.874;2023-02-28T11:23:45;12.15;;;6.82;;
66546;SDS011;53400;50.364;14.874;2023-02-28T11:26:13;10.00;;;4.95;;
66546;SDS011;53400;50.364;14.874;2023-02-28T11:28:41;11.00;;;6.50;;
66546;SDS011;53400;50.364;14.874;2023-02-28T11:31:17;13.75;;;6.22;;
66546;SDS011;53400;50.364;14.874;2023-02-28T11:33:45;12.38;;;6.22;;
66546;SDS011;53400;50.364;14.874;2023-02-28T11:36:14;12.05;;;7.07;;
66546;SDS011;53400;50.364;14.874;2023-02-28T11:38:44;13.70;;;6.07;;
66546;SDS011;53400;50.364;14.874;2023-02-28T11:44:23;11.63;;;6.45;;
66546;SDS011;53400;50.364;14.874;2023-02-28T11:47:00;12.15;;;6.90;;
66546;SDS011;53400;50.364;14.874;2023-02-28T11:49:34;11.45;;;5.68;;
66546;SDS011;53400;50.364;14.874;2023-02-28T11:52:09;10.52;;;5.78;;
66546;SDS011;53400;50.364;14.874;2023-02-28T11:54:52;12.50;;;6.70;;
66546;SDS011;53400;50.364;14.874;2023-02-28T11:57:30;13.30;;;7.32;;
66546;SDS011;53400;50.364;14.874;2023-02-28T12:00:05;10.98;;;6.03;;
66546;SDS011;53400;50.364;14.874;2023-02-28T12:02:46;12.13;;;6.45;;
66546;SDS011;53400;50.364;14.874;2023-02-28T12:05:26;12.48;;;6.60;;
66546;SDS011;53400;50.364;14.874;2023-02-28T12:08:04;11.90;;;5.72;;
66546;SDS011;53400;50.364;14.874;2023-02-28T12:10:43;10.73;;;5.35;;
66546;SDS011;53400;50.364;14.874;2023-02-28T12:13:18;13.93;;;6.53;;
66546;SDS011;53400;50.364;14.874;2023-02-28T12:16:00;12.35;;;7.13;;
66546;SDS011;53400;50.364;14.874;2023-02-28T12:18:49;12.20;;;6.30;;
66546;SDS011;53400;50.364;14.874;2023-02-28T12:21:27;11.07;;;6.13;;
66546;SDS011;53400;50.364;14.874;2023-02-28T12:24:09;11.27;;;5.53;;
66546;SDS011;53400;50.364;14.874;2023-02-28T12:27:05;8.35;;;4.32;;
66546;SDS011;53400;50.364;14.874;2023-02-28T12:29:43;11.75;;;6.15;;
66546;SDS011;53400;50.364;14.874;2023-02-28T12:32:16;14.07;;;6.53;;
66546;SDS011;53400;50.364;14.874;2023-02-28T12:34:47;12.57;;;5.75;;
66546;SDS011;53400;50.364;14.874;2023-02-28T12:37:17;11.88;;;6.18;;
66546;SDS011;53400;50.364;14.874;2023-02-28T12:39:49;13.00;;;6.82;;
66546;SDS011;53400;50.364;14.874;2023-02-28T12:42:22;13.90;;;7.47;;
66546;SDS011;53400;50.364;14.874;2023-02-28T12:44:54;10.77;;;5.50;;
66546;SDS011;53400;50.364;14.874;2023-02-28T12:47:25;10.82;;;5.63;;
66546;SDS011;53400;50.364;14.874;2023-02-28T12:49:52;11.40;;;6.53;;
66546;SDS011;53400;50.364;14.874;2023-02-28T12:52:24;11.43;;;6.40;;
66546;SDS011;53400;50.364;14.874;2023-02-28T12:54:56;9.70;;;4.57;;
66546;SDS011;53400;50.364;14.874;2023-02-28T12:57:28;12.52;;;6.32;;
66546;SDS011;53400;50.364;14.874;2023-02-28T13:00:03;12.57;;;6.97;;
66546;SDS011;53400;50.364;14.874;2023-02-28T13:02:46;11.65;;;6.35;;
66546;SDS011;53400;50.364;14.874;2023-02-28T13:05:29;12.35;;;6.18;;
66546;SDS011;53400;50.364;14.874;2023-02-28T13:08:22;13.07;;;6.40;;
66546;SDS011;53400;50.364;14.874;2023-02-28T13:11:03;13.30;;;6.55;;
66546;SDS011;53400;50.364;14.874;2023-02-28T13:13:29;11.75;;;6.78;;
66546;SDS011;53400;50.364;14.874;2023-02-28T13:15:57;12.85;;;6.65;;
66546;SDS011;53400;50.364;14.874;2023-02-28T13:18:36;11.73;;;6.18;;
66546;SDS011;53400;50.364;14.874;2023-02-28T13:21:05;13.32;;;6.65;;
66546;SDS011;53400;50.364;14.874;2023-02-28T13:23:39;11.85;;;6.82;;
66546;SDS011;53400;50.364;14.874;2023-02-28T13:26:22;11.68;;;6.85;;
66546;SDS011;53400;50.364;14.874;2023-02-28T13:38:23;12.88;;;7.07;;
66546;SDS011;53400;50.364;14.874;2023-02-28T13:40:58;15.57;;;7.47;;
66546;SDS011;53400;50.364;14.874;2023-02-28T13:44:05;14.02;;;7.35;;
66546;SDS011;53400;50.364;14.874;2023-02-28T13:46:32;12.98;;;6.65;;
66546;SDS011;53400;50.364;14.874;2023-02-28T13:49:20;14.27;;;7.68;;
66546;SDS011;53400;50.364;14.874;2023-02-28T13:51:50;15.25;;;7.07;;
66546;SDS011;53400;50.364;14.874;2023-02-28T13:54:26;13.90;;;7.50;;
66546;SDS011;53400;50.364;14.874;2023-02-28T13:57:02;14.38;;;7.53;;
66546;SDS011;53400;50.364;14.874;2023-02-28T13:59:38;13.13;;;6.82;;
66546;SDS011;53400;50.364;14.874;2023-02-28T14:02:31;13.40;;;7.43;;
66546;SDS011;53400;50.364;14.874;2023-02-28T14:05:10;15.05;;;7.22;;
66546;SDS011;53400;50.364;14.874;2023-02-28T14:07:41;14.23;;;7.72;;
66546;SDS011;53400;50.364;14.874;2023-02-28T14:10:19;17.02;;;8.93;;
66546;SDS011;53400;50.364;14.874;2023-02-28T14:12:56;12.05;;;6.63;;
66546;SDS011;53400;50.364;14.874;2023-02-28T14:15:34;12.20;;;6.82;;
66546;SDS011;53400;50.364;14.874;2023-02-28T14:18:06;12.15;;;6.20;;
66546;SDS011;53400;50.364;14.874;2023-02-28T14:20:41;15.32;;;8.02;;
66546;SDS011;53400;50.364;14.874;2023-02-28T14:23:10;13.93;;;7.85;;
66546;SDS011;53400;50.364;14.874;2023-02-28T14:28:17;12.77;;;7.15;;
66546;SDS011;53400;50.364;14.874;2023-02-28T14:30:57;16.83;;;7.13;;
66546;SDS011;53400;50.364;14.874;2023-02-28T14:33:31;12.02;;;5.90;;
66546;SDS011;53400;50.364;14.874;2023-02-28T14:36:10;13.98;;;7.45;;
66546;SDS011;53400;50.364;14.874;2023-02-28T14:38:42;14.35;;;7.68;;
66546;SDS011;53400;50.364;14.874;2023-02-28T14:41:14;14.50;;;7.93;;
66546;SDS011;53400;50.364;14.874;2023-02-28T14:43:47;14.07;;;7.93;;
66546;SDS011;53400;50.364;14.874;2023-02-28T14:48:44;13.93;;;6.47;;
66546;SDS011;53400;50.364;14.874;2023-02-28T14:51:11;14.23;;;7.80;;
66546;SDS011;53400;50.364;14.874;2023-02-28T14:53:43;15.35;;;7.90;;
66546;SDS011;53400;50.364;14.874;2023-02-28T14:56:19;13.93;;;8.00;;
66546;SDS011;53400;50.364;14.874;2023-02-28T14:58:50;13.77;;;7.43;;
66546;SDS011;53400;50.364;14.874;2023-02-28T15:01:19;14.48;;;7.55;;
66546;SDS011;53400;50.364;14.874;2023-02-28T15:03:45;15.02;;;8.00;;
66546;SDS011;53400;50.364;14.874;2023-02-28T15:06:13;16.33;;;8.02;;
66546;SDS011;53400;50.364;14.874;2023-02-28T15:08:42;14.85;;;8.15;;
66546;SDS011;53400;50.364;14.874;2023-02-28T15:11:11;13.85;;;7.63;;